Aeroporto :
LOGIN :

Iscrizione | Disclaimer

   EN    FR    IT 

 










Sommario :    VFR   VFR Marginale   IFR   IFR Intensivo   IFR Molto Intensivo
Visibilità : 
Base nubi : 
>= 8 km
>= 3000ft
5 / 8 km
1000 / 3000 ft
1500m / 5 km
500 / 1000 ft
800 / 1500m
200 / 500 ft
< 800m
< 200 ft
Simboli :   Temporali  Nebbia  Neve Forte  Precipitazioni Forti  Vento > 20 kt
SIGMETs :   Varie  Temporali  Ghiacco  Turbolenza  Onda orograficha  Ceneri Vulcaniche






- Altitudine del aeroporto : 1161 ft
- Codice IATA : RJL


LELO - Logroño-Agoncillo

ULTIMO METAR :
  • 060300Z AUTO 28011KT CAVOK 17/12 Q1022

METARs OBSOLETI :
  • 060230Z AUTO 28010KT CAVOK 18/12 Q1022
  • 060200Z AUTO 28011KT CAVOK 18/11 Q1022
  • 060130Z AUTO 28012KT CAVOK 19/11 Q1022
  • 060100Z AUTO 28009KT CAVOK 19/13 Q1023
  • 060030Z AUTO 30008KT 260V330 CAVOK 20/13 Q1023

TAF TAF LELO
Valido dal 06 a 03 ore il 06 a 12 ore UTC


060200Z 0603/0612 29010KT CAVOK



MetMap, La meteo Aeronautica in un colpo d'occhio ! - Copyright ORBIFLY Dicembre 2007 - Disclaimer

ORBIFLY MET'MAP TEAM :

Programmazione e sviluppo : Alexandra Zaïnal
Concezione : Baudouin d'Aumeries
Aiuto per la programmazione : Marc-Olivier Méhu
Supporto tecnico e logistico : Manuel Goepfert
Aiuto per la traduzione : Arnaldo La Scala

Contatto : metmap@orbifly.com




FONTI E CREDITI :

   NOAA